createdAt,value
2023-05-23T00:01:31.713Z,14.95
2023-05-23T00:03:59.866Z,15.07
2023-05-23T00:06:27.912Z,15.03
2023-05-23T00:08:56.225Z,14.95
2023-05-23T00:11:27.126Z,14.68
2023-05-23T00:13:57.568Z,14.93
2023-05-23T00:16:25.867Z,14.93
2023-05-23T00:18:53.969Z,14.85
2023-05-23T00:21:21.948Z,14.76
2023-05-23T00:23:50.555Z,14.67
2023-05-23T00:26:18.532Z,14.53
2023-05-23T00:28:46.483Z,14.55
2023-05-23T00:31:16.070Z,14.57
2023-05-23T00:33:44.100Z,14.38
2023-05-23T00:36:13.598Z,14.37
2023-05-23T00:38:41.696Z,14.24
2023-05-23T00:41:09.679Z,14.21
2023-05-23T00:43:37.751Z,14.39
2023-05-23T00:46:06.138Z,14.41
2023-05-23T00:48:38.328Z,14.28
2023-05-23T00:51:06.439Z,14.23
2023-05-23T00:53:36.186Z,13.96
2023-05-23T00:56:04.787Z,13.65
2023-05-23T00:58:32.876Z,13.67
2023-05-23T01:01:01.157Z,13.68
2023-05-23T01:03:30.392Z,13.43
2023-05-23T01:05:59.883Z,13.68
2023-05-23T01:08:30.380Z,13.51
2023-05-23T01:11:14.778Z,13.69
2023-05-23T01:13:49.178Z,13.82
2023-05-23T01:16:22.255Z,13.93
2023-05-23T01:18:58.399Z,13.96
2023-05-23T01:21:28.625Z,13.93
2023-05-23T01:24:14.405Z,13.93
2023-05-23T01:26:56.740Z,13.97
2023-05-23T01:29:29.671Z,13.94
2023-05-23T01:32:00.020Z,13.90
2023-05-23T01:34:28.207Z,13.79
2023-05-23T01:36:56.729Z,13.59
2023-05-23T01:39:25.287Z,13.77
2023-05-23T01:41:54.801Z,13.68
2023-05-23T01:44:23.500Z,13.81
2023-05-23T01:46:52.892Z,13.80
2023-05-23T01:49:23.376Z,13.88
2023-05-23T01:51:51.817Z,13.79
2023-05-23T01:54:20.711Z,13.76
2023-05-23T01:56:49.520Z,13.79
2023-05-23T01:59:17.656Z,13.70
2023-05-23T02:01:45.789Z,13.67
2023-05-23T02:04:15.860Z,13.52
2023-05-23T02:06:43.786Z,13.50
2023-05-23T02:09:11.813Z,13.62
2023-05-23T02:11:39.794Z,13.74
2023-05-23T02:14:08.453Z,13.76
2023-05-23T02:16:36.765Z,13.73
2023-05-23T02:19:05.487Z,13.60
2023-05-23T02:21:35.637Z,13.59
2023-05-23T02:24:03.930Z,13.58
2023-05-23T02:26:31.826Z,13.61
2023-05-23T02:28:59.783Z,13.47
2023-05-23T02:31:28.066Z,13.22
2023-05-23T02:33:56.108Z,13.27
2023-05-23T02:36:24.244Z,13.28
2023-05-23T02:38:53.565Z,13.39
2023-05-23T02:41:21.577Z,13.40
2023-05-23T02:43:49.580Z,13.46
2023-05-23T02:46:17.621Z,13.51
2023-05-23T02:48:45.740Z,13.48
2023-05-23T02:51:14.565Z,13.36
2023-05-23T02:53:42.764Z,13.35
2023-05-23T02:56:13.551Z,13.40
2023-05-23T02:58:41.530Z,13.35
2023-05-23T03:01:09.762Z,13.43
2023-05-23T03:03:37.843Z,13.40
2023-05-23T03:06:06.410Z,13.36
2023-05-23T03:08:34.444Z,13.46
2023-05-23T03:11:02.350Z,13.45
2023-05-23T03:13:32.263Z,13.55
2023-05-23T03:16:00.315Z,13.56
2023-05-23T03:18:28.334Z,12.83
2023-05-23T03:20:56.297Z,13.43
2023-05-23T03:23:24.258Z,13.55
2023-05-23T03:25:52.180Z,13.38
2023-05-23T03:28:20.106Z,13.40
2023-05-23T03:30:49.416Z,13.40
2023-05-23T03:33:17.446Z,13.21
2023-05-23T03:35:45.942Z,13.26
2023-05-23T03:38:13.897Z,13.35
2023-05-23T03:40:41.774Z,13.37
2023-05-23T03:43:10.126Z,13.42
2023-05-23T03:45:38.092Z,13.44
2023-05-23T03:48:07.525Z,13.25
2023-05-23T03:50:35.715Z,13.36
2023-05-23T03:53:03.632Z,13.28
2023-05-23T03:55:33.091Z,13.32
2023-05-23T03:58:01.122Z,13.42
2023-05-23T04:00:29.208Z,13.68
2023-05-23T04:02:57.477Z,13.79
2023-05-23T04:05:26.998Z,13.92
2023-05-23T04:07:54.972Z,13.96
2023-05-23T04:10:23.042Z,14.19
2023-05-23T04:12:51.707Z,14.32
2023-05-23T04:15:21.532Z,14.38
2023-05-23T04:17:49.761Z,14.60
2023-05-23T04:20:18.084Z,14.77
2023-05-23T04:22:47.362Z,14.82
2023-05-23T04:25:15.344Z,14.77
2023-05-23T04:27:43.311Z,14.93
2023-05-23T04:30:11.854Z,14.77
2023-05-23T04:32:40.366Z,14.84
2023-05-23T04:35:09.144Z,14.73
2023-05-23T04:37:37.970Z,14.67
2023-05-23T04:40:08.353Z,14.68
2023-05-23T04:42:36.594Z,14.58
2023-05-23T04:45:04.768Z,14.73
2023-05-23T04:47:37.273Z,14.95
2023-05-23T04:50:05.800Z,14.91
2023-05-23T04:52:34.187Z,15.08
2023-05-23T04:55:02.480Z,15.08
2023-05-23T04:57:31.838Z,15.25
2023-05-23T05:00:01.213Z,15.42
2023-05-23T05:02:33.867Z,15.48
2023-05-23T05:05:01.876Z,15.67
2023-05-23T05:07:30.507Z,15.86
2023-05-23T05:10:00.907Z,16.11
2023-05-23T05:12:29.191Z,16.24
2023-05-23T05:14:58.602Z,15.85
2023-05-23T05:17:26.815Z,15.75
2023-05-23T05:19:54.796Z,15.72
2023-05-23T05:22:23.375Z,15.59
2023-05-23T05:24:51.427Z,15.63
2023-05-23T05:27:19.417Z,15.56
2023-05-23T05:29:48.289Z,15.55
2023-05-23T05:32:17.766Z,15.49
2023-05-23T05:34:49.131Z,15.59
2023-05-23T05:37:17.701Z,15.67
2023-05-23T05:39:45.605Z,15.65
2023-05-23T05:42:13.582Z,15.75
2023-05-23T05:44:41.664Z,15.83
2023-05-23T05:47:09.559Z,15.97
2023-05-23T05:49:38.853Z,15.96
2023-05-23T05:52:08.239Z,16.16
2023-05-23T05:54:36.351Z,16.37
2023-05-23T05:57:04.351Z,16.45
2023-05-23T05:59:32.727Z,16.61
2023-05-23T06:02:00.846Z,16.80
2023-05-23T06:04:28.795Z,16.99
2023-05-23T06:06:58.132Z,17.19
2023-05-23T06:09:26.126Z,17.31
2023-05-23T06:11:54.025Z,17.54
2023-05-23T06:14:21.921Z,17.70
2023-05-23T06:16:50.313Z,17.99
2023-05-23T06:19:18.274Z,18.30
2023-05-23T06:21:46.199Z,18.44
2023-05-23T06:24:15.590Z,18.44
2023-05-23T06:26:43.626Z,18.57
2023-05-23T06:29:11.605Z,18.57
2023-05-23T06:31:39.692Z,18.50
2023-05-23T06:34:07.763Z,18.32
2023-05-23T06:36:35.725Z,18.32
2023-05-23T06:39:03.732Z,18.13
2023-05-23T06:41:33.131Z,18.34
2023-05-23T06:44:01.355Z,18.43
2023-05-23T06:46:29.464Z,18.47
2023-05-23T06:49:10.666Z,18.63
2023-05-23T06:51:42.243Z,18.91
2023-05-23T06:54:10.294Z,18.87
2023-05-23T06:56:39.832Z,19.00
2023-05-23T06:59:07.981Z,19.29
2023-05-23T07:01:35.985Z,18.99
2023-05-23T07:04:03.932Z,19.25
2023-05-23T07:06:32.815Z,19.45
2023-05-23T07:09:00.783Z,19.50
2023-05-23T07:11:28.773Z,19.72
2023-05-23T07:13:58.143Z,19.80
2023-05-23T07:16:26.335Z,19.81
2023-05-23T07:18:54.381Z,19.89
2023-05-23T07:21:22.370Z,20.10
2023-05-23T07:23:50.328Z,20.33
2023-05-23T07:26:18.230Z,20.33
2023-05-23T07:28:46.700Z,20.39
2023-05-23T07:31:16.091Z,20.25
2023-05-23T07:33:44.067Z,20.11
2023-05-23T07:36:12.470Z,20.35
2023-05-23T07:38:40.384Z,20.49
2023-05-23T07:41:11.934Z,20.62
2023-05-23T07:43:40.942Z,20.39
2023-05-23T07:46:09.152Z,20.47
2023-05-23T07:48:38.511Z,20.62
2023-05-23T07:51:06.477Z,20.80
2023-05-23T07:53:35.039Z,20.91
2023-05-23T07:56:03.023Z,20.66
2023-05-23T07:58:30.953Z,20.94
2023-05-23T08:00:59.736Z,21.04
2023-05-23T08:03:27.842Z,21.16
2023-05-23T08:05:57.156Z,21.23
2023-05-23T08:08:25.149Z,21.17
2023-05-23T08:10:53.097Z,20.86
2023-05-23T08:13:21.060Z,20.99
2023-05-23T08:15:49.051Z,21.23
2023-05-23T08:18:18.258Z,21.41
2023-05-23T08:20:46.350Z,21.51
2023-05-23T08:23:15.738Z,21.64
2023-05-23T08:25:43.697Z,21.49
2023-05-23T08:28:11.667Z,21.49
2023-05-23T08:30:39.693Z,21.52
2023-05-23T08:33:07.904Z,21.78
2023-05-23T08:35:36.643Z,21.86
2023-05-23T08:38:07.877Z,21.64
2023-05-23T08:40:38.375Z,21.60
2023-05-23T08:43:06.386Z,21.64
2023-05-23T08:45:34.987Z,21.95
2023-05-23T08:48:04.673Z,22.24
2023-05-23T08:50:33.703Z,21.94
2023-05-23T08:53:02.321Z,21.91
2023-05-23T08:55:31.590Z,22.22
2023-05-23T08:58:01.345Z,22.52
2023-05-23T09:00:29.727Z,22.67
2023-05-23T09:02:58.519Z,22.90
2023-05-23T09:05:27.827Z,22.66
2023-05-23T09:07:56.901Z,22.46
2023-05-23T09:10:24.971Z,22.48
2023-05-23T09:12:53.207Z,22.76
2023-05-23T09:15:24.009Z,23.02
2023-05-23T09:17:52.147Z,22.99
2023-05-23T09:20:20.127Z,22.86
2023-05-23T09:22:49.198Z,22.56
2023-05-23T09:25:17.488Z,22.23
2023-05-23T09:27:48.147Z,22.17
2023-05-23T09:30:16.910Z,22.28
2023-05-23T09:33:02.043Z,22.45
2023-05-23T09:35:32.018Z,22.32
2023-05-23T09:38:00.476Z,22.44
2023-05-23T09:40:33.263Z,22.51
2023-05-23T09:43:05.092Z,22.31
2023-05-23T09:45:33.854Z,21.87
2023-05-23T09:48:03.295Z,21.76
2023-05-23T09:50:33.905Z,21.74
2023-05-23T09:53:02.393Z,21.66
2023-05-23T09:55:30.466Z,21.70
2023-05-23T09:58:00.874Z,21.61
2023-05-23T10:00:29.815Z,21.71
2023-05-23T10:03:12.525Z,21.86
2023-05-23T10:05:45.767Z,22.20
2023-05-23T10:08:17.236Z,22.39
2023-05-23T10:11:31.195Z,22.23
2023-05-23T10:14:00.638Z,22.16
2023-05-23T10:16:35.453Z,22.35
2023-05-23T10:19:11.692Z,22.56
2023-05-23T10:21:46.891Z,22.70
2023-05-23T10:24:16.639Z,22.69
2023-05-23T10:26:46.352Z,22.53
2023-05-23T10:29:14.291Z,22.14
2023-05-23T10:31:42.927Z,22.23
2023-05-23T10:34:22.930Z,21.79
2023-05-23T10:36:58.643Z,21.90
2023-05-23T10:39:37.636Z,21.85
2023-05-23T10:42:12.852Z,22.26
2023-05-23T10:44:40.909Z,22.49
2023-05-23T10:47:09.072Z,22.79
2023-05-23T10:49:43.086Z,23.11
2023-05-23T10:52:12.492Z,23.13
2023-05-23T10:54:45.075Z,23.04
2023-05-23T10:57:17.679Z,22.97
2023-05-23T10:59:46.953Z,22.96
2023-05-23T11:02:16.468Z,22.86
2023-05-23T11:04:48.349Z,22.95
2023-05-23T11:07:32.941Z,23.01
2023-05-23T11:10:11.569Z,22.77
2023-05-23T11:12:42.360Z,23.33
2023-05-23T11:15:25.364Z,23.56
2023-05-23T11:17:55.060Z,23.70
2023-05-23T11:20:28.470Z,23.53
2023-05-23T11:23:00.972Z,23.48
2023-05-23T11:25:43.089Z,23.33
2023-05-23T11:28:11.819Z,23.48
2023-05-23T11:30:41.405Z,23.61
2023-05-23T11:33:13.482Z,23.67
2023-05-23T11:35:43.362Z,24.06
2023-05-23T11:38:12.048Z,23.71
2023-05-23T11:40:41.517Z,23.99
2023-05-23T11:43:11.016Z,23.94
2023-05-23T11:45:39.953Z,23.96
2023-05-23T11:48:09.284Z,24.02
2023-05-23T11:50:47.654Z,23.60
2023-05-23T11:53:17.662Z,23.18
2023-05-23T11:55:50.685Z,23.14
2023-05-23T11:58:19.084Z,23.33
2023-05-23T12:00:47.650Z,23.34
2023-05-23T12:03:16.524Z,23.40
2023-05-23T12:05:46.296Z,23.06
2023-05-23T12:08:15.220Z,23.24
2023-05-23T12:10:54.714Z,23.16
2023-05-23T12:13:25.948Z,23.27
2023-05-23T12:15:56.308Z,23.49
2023-05-23T12:18:24.782Z,23.42
2023-05-23T12:20:54.432Z,23.43
2023-05-23T12:23:23.532Z,23.60
2023-05-23T12:25:53.107Z,23.67
2023-05-23T12:28:21.577Z,23.74
2023-05-23T12:30:49.825Z,24.02
2023-05-23T12:33:20.235Z,23.91
2023-05-23T12:35:48.244Z,23.91
2023-05-23T12:38:18.489Z,23.91
2023-05-23T12:40:46.618Z,23.81
2023-05-23T12:43:17.040Z,23.57
2023-05-23T12:45:44.991Z,23.79
2023-05-23T12:48:13.088Z,23.85
2023-05-23T12:50:41.374Z,23.90
2023-05-23T12:53:09.387Z,23.79
2023-05-23T12:55:39.174Z,23.67
2023-05-23T12:58:07.461Z,23.28
2023-05-23T13:00:35.401Z,23.43
2023-05-23T13:03:03.507Z,23.47
2023-05-23T13:05:31.474Z,23.65
2023-05-23T13:08:00.316Z,23.81
2023-05-23T13:10:30.949Z,23.60
2023-05-23T13:13:02.451Z,23.74
2023-05-23T13:15:30.470Z,23.81
2023-05-23T13:17:58.662Z,23.48
2023-05-23T13:20:30.120Z,23.66
2023-05-23T13:22:58.616Z,23.82
2023-05-23T13:25:27.224Z,23.99
2023-05-23T13:27:56.132Z,23.80
2023-05-23T13:30:26.249Z,23.91
2023-05-23T13:32:54.204Z,24.06
2023-05-23T13:35:22.358Z,24.13
2023-05-23T13:37:50.661Z,24.03
2023-05-23T13:40:20.509Z,24.25
2023-05-23T13:42:51.044Z,24.32
2023-05-23T13:45:19.445Z,23.94
2023-05-23T13:47:48.887Z,24.01
2023-05-23T13:50:16.970Z,24.08
2023-05-23T13:52:48.281Z,24.19
2023-05-23T13:55:18.777Z,24.25
2023-05-23T13:57:46.932Z,24.38
2023-05-23T14:00:16.168Z,24.16
2023-05-23T14:02:44.205Z,24.31
2023-05-23T14:05:13.633Z,24.44
2023-05-23T14:07:43.003Z,24.33
2023-05-23T14:10:11.914Z,24.08
2023-05-23T14:12:39.916Z,23.58
2023-05-23T14:15:08.960Z,23.05
2023-05-23T14:17:36.951Z,23.26
2023-05-23T14:20:05.346Z,22.84
2023-05-23T14:22:34.716Z,22.85
2023-05-23T14:25:02.664Z,22.06
2023-05-23T14:27:30.653Z,21.65
2023-05-23T14:29:58.585Z,21.64
2023-05-23T14:32:26.898Z,21.78
2023-05-23T14:34:55.427Z,21.97
2023-05-23T14:37:23.347Z,22.05
2023-05-23T14:39:52.694Z,21.94
2023-05-23T14:42:20.682Z,21.90
2023-05-23T14:44:48.662Z,21.86
2023-05-23T14:47:16.777Z,21.95
2023-05-23T14:49:44.808Z,21.98
2023-05-23T14:52:13.673Z,21.65
2023-05-23T14:54:41.838Z,21.78
2023-05-23T14:57:11.164Z,21.89
2023-05-23T14:59:39.221Z,22.09
2023-05-23T15:02:07.388Z,22.22
2023-05-23T15:04:36.149Z,22.29
2023-05-23T15:07:04.224Z,22.34
2023-05-23T15:09:32.370Z,22.35
2023-05-23T15:12:00.320Z,22.38
2023-05-23T15:14:32.140Z,21.88
2023-05-23T15:17:07.735Z,21.73
2023-05-23T15:19:36.699Z,21.85
2023-05-23T15:22:05.647Z,21.92
2023-05-23T15:24:34.960Z,21.66
2023-05-23T15:27:19.014Z,21.59
2023-05-23T15:29:49.899Z,21.46
2023-05-23T15:32:17.862Z,21.46
2023-05-23T15:34:46.016Z,21.51
2023-05-23T15:37:13.973Z,21.49
2023-05-23T15:39:42.017Z,21.35
2023-05-23T15:42:10.131Z,21.40
2023-05-23T15:44:38.184Z,21.23
2023-05-23T15:47:07.881Z,21.12
2023-05-23T15:49:36.338Z,21.21
2023-05-23T15:52:04.472Z,21.14
2023-05-23T15:54:32.399Z,21.19
2023-05-23T15:57:00.447Z,21.21
2023-05-23T15:59:28.398Z,21.37
2023-05-23T16:01:56.412Z,21.41
2023-05-23T16:04:25.792Z,21.35
2023-05-23T16:06:53.733Z,21.62
2023-05-23T16:09:21.669Z,21.40
2023-05-23T16:11:49.704Z,21.55
2023-05-23T16:14:17.697Z,21.70
2023-05-23T16:16:45.913Z,21.75
2023-05-23T16:19:13.971Z,21.89
2023-05-23T16:21:43.589Z,22.02
2023-05-23T16:24:12.262Z,21.96
2023-05-23T16:26:40.463Z,22.09
2023-05-23T16:29:08.505Z,21.80
2023-05-23T16:31:36.876Z,21.90
2023-05-23T16:34:05.089Z,21.94
2023-05-23T16:36:33.920Z,21.99
2023-05-23T16:39:03.555Z,22.10
2023-05-23T16:41:31.562Z,22.28
2023-05-23T16:43:59.628Z,22.29
2023-05-23T16:46:27.711Z,22.36
2023-05-23T16:48:55.972Z,22.05
2023-05-23T16:51:23.961Z,21.95
2023-05-23T16:53:52.058Z,21.67
2023-05-23T16:56:21.564Z,21.34
2023-05-23T16:58:49.500Z,21.17
2023-05-23T17:01:19.942Z,21.11
2023-05-23T17:03:49.072Z,20.97
2023-05-23T17:06:17.116Z,21.25
2023-05-23T17:08:45.102Z,21.40
2023-05-23T17:11:13.051Z,21.03
2023-05-23T17:13:42.557Z,20.87
2023-05-23T17:16:11.056Z,20.80
2023-05-23T17:18:39.090Z,20.61
2023-05-23T17:21:07.138Z,20.51
2023-05-23T17:23:35.192Z,20.67
2023-05-23T17:26:03.223Z,20.71
2023-05-23T17:28:31.177Z,20.49
2023-05-23T17:31:01.002Z,20.42
2023-05-23T17:33:29.058Z,20.45
2023-05-23T17:35:56.985Z,20.39
2023-05-23T17:38:25.112Z,20.41
2023-05-23T17:40:53.151Z,20.44
2023-05-23T17:43:21.236Z,20.61
2023-05-23T17:45:49.178Z,20.61
2023-05-23T17:48:18.479Z,20.50
2023-05-23T17:50:46.701Z,20.50
2023-05-23T17:53:18.301Z,20.31
2023-05-23T17:55:47.550Z,20.43
2023-05-23T17:58:15.732Z,20.27
2023-05-23T18:00:43.994Z,20.30
2023-05-23T18:03:12.395Z,20.08
2023-05-23T18:05:41.707Z,20.05
2023-05-23T18:08:09.671Z,19.98
2023-05-23T18:10:37.987Z,19.97
2023-05-23T18:13:06.050Z,19.97
2023-05-23T18:15:34.068Z,19.97
2023-05-23T18:18:02.067Z,19.81
2023-05-23T18:20:29.999Z,19.86
2023-05-23T18:22:59.303Z,19.86
2023-05-23T18:25:28.318Z,19.85
2023-05-23T18:27:56.742Z,19.86
2023-05-23T18:30:24.776Z,19.83
2023-05-23T18:32:52.862Z,19.76
2023-05-23T18:35:21.729Z,19.67
2023-05-23T18:37:49.872Z,19.76
2023-05-23T18:40:21.786Z,19.46
2023-05-23T18:42:50.366Z,19.47
2023-05-23T18:45:18.394Z,19.49
2023-05-23T18:47:46.433Z,19.16
2023-05-23T18:50:15.263Z,19.09
2023-05-23T18:52:43.863Z,18.76
2023-05-23T18:55:12.396Z,18.64
2023-05-23T18:57:41.800Z,18.64
2023-05-23T19:00:10.824Z,18.71
2023-05-23T19:02:43.795Z,18.38
2023-05-23T19:05:12.413Z,18.11
2023-05-23T19:07:40.876Z,18.16
2023-05-23T19:10:09.652Z,18.04
2023-05-23T19:12:38.831Z,18.00
2023-05-23T19:15:10.957Z,18.05
2023-05-23T19:17:39.234Z,18.26
2023-05-23T19:20:08.357Z,18.30
2023-05-23T19:22:50.114Z,18.08
2023-05-23T19:25:19.402Z,18.24
2023-05-23T19:27:47.383Z,18.34
2023-05-23T19:30:16.897Z,18.42
2023-05-23T19:32:45.012Z,18.37
2023-05-23T19:35:16.323Z,18.46
2023-05-23T19:37:44.975Z,18.46
2023-05-23T19:40:13.755Z,18.33
2023-05-23T19:42:41.742Z,18.24
2023-05-23T19:45:10.396Z,18.18
2023-05-23T19:47:39.738Z,18.18
2023-05-23T19:50:08.419Z,18.18
2023-05-23T19:52:36.322Z,18.23
2023-05-23T19:55:04.612Z,18.36
2023-05-23T19:57:33.321Z,18.39
2023-05-23T20:00:01.595Z,18.25
2023-05-23T20:02:29.677Z,18.20
2023-05-23T20:04:58.997Z,17.88
2023-05-23T20:07:27.034Z,17.90
2023-05-23T20:09:55.453Z,17.93
2023-05-23T20:12:23.428Z,18.15
2023-05-23T20:14:51.460Z,18.16
2023-05-23T20:17:19.439Z,18.27
2023-05-23T20:19:50.099Z,18.12
2023-05-23T20:22:19.482Z,18.04
2023-05-23T20:24:47.900Z,18.14
2023-05-23T20:27:16.631Z,18.17
2023-05-23T20:29:44.647Z,18.17
2023-05-23T20:32:12.665Z,18.19
2023-05-23T20:34:40.644Z,18.04
2023-05-23T20:37:08.615Z,17.97
2023-05-23T20:39:38.638Z,17.91
2023-05-23T20:42:10.408Z,18.17
2023-05-23T20:44:39.314Z,18.09
2023-05-23T20:47:07.715Z,17.86
2023-05-23T20:49:37.438Z,17.51
2023-05-23T20:52:06.559Z,17.20
2023-05-23T20:54:36.679Z,16.79
2023-05-23T20:57:06.546Z,16.83
2023-05-23T20:59:34.547Z,16.50
2023-05-23T21:02:02.723Z,16.26
2023-05-23T21:04:30.660Z,16.13
2023-05-23T21:06:58.655Z,16.14
2023-05-23T21:09:26.669Z,16.12
2023-05-23T21:11:54.603Z,16.18
2023-05-23T21:14:24.025Z,16.13
2023-05-23T21:16:52.125Z,16.31
2023-05-23T21:19:20.309Z,16.46
2023-05-23T21:21:48.404Z,16.61
2023-05-23T21:24:16.434Z,16.60
2023-05-23T21:26:44.361Z,16.66
2023-05-23T21:29:12.348Z,16.74
2023-05-23T21:31:42.195Z,16.78
2023-05-23T21:34:23.103Z,16.90
2023-05-23T21:36:51.889Z,16.76
2023-05-23T21:39:19.978Z,16.86
2023-05-23T21:41:47.986Z,16.71
2023-05-23T21:44:17.769Z,16.65
2023-05-23T21:46:47.479Z,16.72
2023-05-23T21:49:15.698Z,16.76
2023-05-23T21:51:44.229Z,16.84
2023-05-23T21:54:12.297Z,16.82
2023-05-23T21:56:40.242Z,16.78
2023-05-23T21:59:08.416Z,16.45
2023-05-23T22:01:36.802Z,16.56
2023-05-23T22:04:06.516Z,16.74
2023-05-23T22:06:34.536Z,16.64
2023-05-23T22:09:02.537Z,16.82
2023-05-23T22:11:34.241Z,16.69
2023-05-23T22:14:02.384Z,16.59
2023-05-23T22:16:32.961Z,16.36
2023-05-23T22:19:02.266Z,16.61
2023-05-23T22:21:31.760Z,16.65
2023-05-23T22:24:00.088Z,16.46
2023-05-23T22:26:28.430Z,16.42
2023-05-23T22:28:56.508Z,16.31
2023-05-23T22:31:25.030Z,16.30
2023-05-23T22:33:53.372Z,16.32
2023-05-23T22:36:21.999Z,16.39
2023-05-23T22:38:51.482Z,16.34
2023-05-23T22:41:19.452Z,16.35
2023-05-23T22:43:47.632Z,16.30
2023-05-23T22:46:15.898Z,16.31
2023-05-23T22:48:45.103Z,16.37
2023-05-23T22:51:14.718Z,16.26
2023-05-23T22:53:43.343Z,16.36
2023-05-23T22:56:12.769Z,16.45
2023-05-23T22:58:40.724Z,16.39
2023-05-23T23:01:08.847Z,16.21
2023-05-23T23:03:36.952Z,16.17
2023-05-23T23:06:06.398Z,15.98
2023-05-23T23:08:34.705Z,16.02
2023-05-23T23:11:02.764Z,16.09
2023-05-23T23:13:32.157Z,16.09
2023-05-23T23:16:00.250Z,15.98
2023-05-23T23:18:28.181Z,15.91
2023-05-23T23:20:56.398Z,15.88
2023-05-23T23:23:24.449Z,15.60
2023-05-23T23:25:52.720Z,15.36
2023-05-23T23:28:21.137Z,15.23
2023-05-23T23:30:50.526Z,15.32
2023-05-23T23:33:18.466Z,15.29
2023-05-23T23:35:48.682Z,15.45
2023-05-23T23:38:16.963Z,15.36
2023-05-23T23:40:45.777Z,15.37
2023-05-23T23:43:13.846Z,15.07
2023-05-23T23:45:41.951Z,14.99
2023-05-23T23:48:13.870Z,14.96
2023-05-23T23:50:42.038Z,15.16
2023-05-23T23:53:10.187Z,15.07
2023-05-23T23:55:38.087Z,14.92
2023-05-23T23:58:06.043Z,15.17
